Time;durP1;ratioP1;P1;durP2;ratioP2;P2;SDS_P1;SDS_P2;PMS_P1;PMS_P2;Temp;Humidity;BMP_temperature;BMP_pressure;BME280_temperature;BME280_humidity;BME280_pressure;Samples;Min_cycle;Max_cycle;Signal;HPM_P1;HPM_P2
2023/04/29 00:00:05;;;;;;;10.93;6.93;;;;;;;7.99;100.00;100359.69;4915964;29;20402;-73
2023/04/29 00:02:32;;;;;;;11.80;7.18;;;;;;;8.10;100.00;100354.09;4914269;29;20490;-72
2023/04/29 00:04:59;;;;;;;10.52;6.82;;;;;;;8.19;100.00;100351.50;4913974;29;20059;-72
2023/04/29 00:07:26;;;;;;;13.20;7.20;;;;;;;8.27;100.00;100333.72;4917026;29;20120;-74
2023/04/29 00:09:52;;;;;;;15.30;7.07;;;;;;;8.21;100.00;100330.81;4916303;29;20416;-74
2023/04/29 00:12:19;;;;;;;12.35;7.15;;;;;;;8.12;100.00;100340.56;4916025;29;20424;-74
2023/04/29 00:14:46;;;;;;;11.25;7.05;;;;;;;7.83;100.00;100343.47;4915998;29;20188;-73
2023/04/29 00:17:13;;;;;;;11.85;7.30;;;;;;;7.89;100.00;100338.38;4908646;29;20055;-74
2023/04/29 00:19:40;;;;;;;10.30;7.18;;;;;;;7.88;100.00;100330.50;4915692;29;20056;-72
2023/04/29 00:22:07;;;;;;;15.45;8.25;;;;;;;7.83;100.00;100335.44;4916332;29;20086;-72
2023/04/29 00:24:33;;;;;;;14.50;7.05;;;;;;;7.99;100.00;100335.63;4916109;29;20048;-74
2023/04/29 00:27:01;;;;;;;12.35;7.38;;;;;;;7.94;100.00;100329.06;4915974;29;20063;-74
2023/04/29 00:29:27;;;;;;;10.85;7.03;;;;;;;7.99;100.00;100332.97;4915167;29;20143;-74
2023/04/29 00:31:54;;;;;;;11.50;7.13;;;;;;;7.72;100.00;100333.00;4913067;29;20052;-73
2023/04/29 00:34:21;;;;;;;13.02;7.47;;;;;;;7.63;100.00;100332.91;4914578;29;20040;-74
2023/04/29 00:36:48;;;;;;;12.35;7.45;;;;;;;7.58;100.00;100334.34;4898745;29;20062;-75
2023/04/29 00:39:14;;;;;;;11.82;7.47;;;;;;;7.62;100.00;100333.06;4914907;29;20126;-74
2023/04/29 00:41:41;;;;;;;12.80;8.10;;;;;;;7.63;100.00;100335.56;4916476;29;20139;-74
2023/04/29 00:44:09;;;;;;;12.25;7.70;;;;;;;7.69;100.00;100330.63;4898323;29;20104;-73
2023/04/29 00:46:36;;;;;;;12.27;7.60;;;;;;;7.73;100.00;100332.84;4915195;29;20048;-74
2023/04/29 00:49:02;;;;;;;13.75;7.90;;;;;;;7.75;100.00;100335.38;4914152;29;20493;-74
2023/04/29 00:51:29;;;;;;;16.33;7.85;;;;;;;7.55;100.00;100340.00;4916053;29;20048;-74
2023/04/29 00:53:56;;;;;;;16.98;7.47;;;;;;;7.78;100.00;100343.09;4915489;29;20066;-74
2023/04/29 00:56:23;;;;;;;11.38;7.43;;;;;;;7.90;100.00;100345.41;4914243;29;20413;-72
2023/04/29 00:58:51;;;;;;;10.93;7.28;;;;;;;7.99;100.00;100349.00;4915166;29;20071;-75
2023/04/29 01:01:18;;;;;;;12.23;7.50;;;;;;;8.06;100.00;100350.06;4914418;29;20047;-74
2023/04/29 01:03:45;;;;;;;16.05;7.78;;;;;;;7.78;100.00;100335.06;4914225;29;20052;-72
2023/04/29 01:09:45;;;;;;;15.55;8.98;;;;;;;7.72;100.00;100304.47;4915621;29;20063;-75
2023/04/29 01:12:34;;;;;;;17.13;8.65;;;;;;;7.39;100.00;100301.44;4914965;29;20074;-75
2023/04/29 01:15:11;;;;;;;18.38;10.50;;;;;;;7.23;100.00;100313.78;4915157;29;20060;-75
2023/04/29 01:17:47;;;;;;;19.45;10.75;;;;;;;7.24;100.00;100318.94;4915207;29;20056;-75
2023/04/29 01:20:15;;;;;;;17.52;10.35;;;;;;;7.14;100.00;100320.81;4913309;29;20052;-75
2023/04/29 01:22:42;;;;;;;19.77;10.65;;;;;;;7.33;100.00;100319.91;4914473;29;20095;-75
2023/04/29 01:25:08;;;;;;;16.70;10.80;;;;;;;7.39;100.00;100319.28;4914732;29;20057;-74
2023/04/29 01:27:44;;;;;;;18.13;10.65;;;;;;;7.41;100.00;100317.31;4897623;29;20468;-74
2023/04/29 01:30:56;;;;;;;17.13;11.43;;;;;;;7.22;100.00;100314.75;4912702;29;20040;-74
2023/04/29 01:33:40;;;;;;;18.23;11.88;;;;;;;7.28;100.00;100315.00;4870772;29;20052;-73
2023/04/29 01:36:41;;;;;;;21.75;12.15;;;;;;;7.28;100.00;100317.66;4914607;29;20123;-72
2023/04/29 01:39:25;;;;;;;17.83;12.05;;;;;;;7.15;100.00;100312.69;4913873;29;20044;-72
2023/04/29 01:42:16;;;;;;;18.00;12.52;;;;;;;7.09;100.00;100307.09;4913720;29;20159;-72
2023/04/29 01:44:46;;;;;;;18.10;12.57;;;;;;;7.16;100.00;100314.38;4912885;29;20059;-72
2023/04/29 01:47:13;;;;;;;24.17;14.77;;;;;;;6.93;100.00;100305.06;4912658;29;20051;-74
2023/04/29 01:49:40;;;;;;;20.85;13.60;;;;;;;6.95;100.00;100308.44;4914235;29;20103;-74
2023/04/29 01:52:06;;;;;;;21.52;14.65;;;;;;;7.04;100.00;100299.53;4913795;29;20464;-73
2023/04/29 01:54:36;;;;;;;21.45;14.35;;;;;;;7.02;100.00;100301.53;4913399;29;20052;-74
2023/04/29 01:57:03;;;;;;;25.80;15.23;;;;;;;7.06;100.00;100302.06;4913283;29;20418;-74
2023/04/29 01:59:29;;;;;;;19.83;14.73;;;;;;;7.11;100.00;100297.94;4913697;29;20130;-75
2023/04/29 02:01:57;;;;;;;19.60;14.68;;;;;;;6.94;100.00;100291.59;4913159;29;20075;-75
2023/04/29 02:04:24;;;;;;;23.25;15.88;;;;;;;6.84;100.00;100293.47;4914423;29;20123;-74
2023/04/29 02:06:51;;;;;;;20.67;16.05;;;;;;;6.81;100.00;100298.25;4912759;29;20052;-74
2023/04/29 02:09:18;;;;;;;25.38;15.70;;;;;;;6.64;100.00;100306.00;4913454;29;20052;-74
2023/04/29 02:11:44;;;;;;;22.95;16.27;;;;;;;6.69;100.00;100298.41;4913078;29;20498;-75
2023/04/29 02:14:11;;;;;;;24.25;16.63;;;;;;;6.66;100.00;100298.69;4914780;29;20052;-74
2023/04/29 02:16:37;;;;;;;28.10;16.90;;;;;;;6.83;100.00;100296.25;4913524;29;20052;-74
2023/04/29 02:19:04;;;;;;;24.02;17.05;;;;;;;6.83;100.00;100293.59;4913476;29;20155;-74
2023/04/29 02:21:31;;;;;;;32.70;17.83;;;;;;;6.92;100.00;100293.56;4913310;29;20044;-74
2023/04/29 02:23:57;;;;;;;27.98;18.25;;;;;;;6.85;100.00;100281.78;4913649;29;20048;-74
2023/04/29 02:26:24;;;;;;;21.80;18.02;;;;;;;6.80;100.00;100294.72;4913751;29;20048;-74
2023/04/29 02:28:51;;;;;;;29.60;19.63;;;;;;;6.78;100.00;100282.53;4913049;29;20052;-74
2023/04/29 02:31:18;;;;;;;29.15;19.52;;;;;;;6.56;100.00;100281.88;4913042;29;20449;-74
2023/04/29 02:33:44;;;;;;;23.88;19.02;;;;;;;6.64;100.00;100274.03;4912597;29;20084;-75
2023/04/29 02:36:11;;;;;;;26.42;19.50;;;;;;;6.65;100.00;100280.19;4913147;29;20048;-74
2023/04/29 02:38:37;;;;;;;27.58;18.98;;;;;;;6.60;100.00;100271.78;4913358;29;20417;-74
2023/04/29 02:41:04;;;;;;;27.63;20.98;;;;;;;6.63;100.00;100269.69;4913297;29;20064;-74
2023/04/29 02:43:30;;;;;;;27.45;20.63;;;;;;;6.78;100.00;100277.19;4912590;29;20071;-74
2023/04/29 02:45:57;;;;;;;28.17;21.05;;;;;;;6.76;100.00;100276.50;4912904;29;20132;-74
2023/04/29 02:48:23;;;;;;;29.15;21.30;;;;;;;6.76;100.00;100268.50;4912782;29;20099;-75
2023/04/29 02:50:50;;;;;;;28.45;20.98;;;;;;;6.78;100.00;100271.88;4911854;29;20048;-74
2023/04/29 02:53:16;;;;;;;35.38;21.98;;;;;;;6.75;100.00;100272.16;4911814;29;20052;-74
2023/04/29 02:55:43;;;;;;;31.08;22.00;;;;;;;6.83;100.00;100266.94;4895710;29;20052;-74
2023/04/29 02:58:09;;;;;;;29.83;22.58;;;;;;;6.74;100.00;100273.13;4912970;29;20066;-74
2023/04/29 03:00:36;;;;;;;30.52;22.27;;;;;;;6.86;100.00;100263.97;4915237;29;20052;-74
2023/04/29 03:03:02;;;;;;;36.42;22.42;;;;;;;6.93;100.00;100260.56;4916127;29;20063;-74
2023/04/29 03:05:29;;;;;;;33.30;23.58;;;;;;;6.87;100.00;100260.31;4915685;29;20446;-74
2023/04/29 03:07:55;;;;;;;34.30;24.08;;;;;;;6.94;100.00;100259.59;4915004;29;20056;-74
2023/04/29 03:10:22;;;;;;;31.20;23.77;;;;;;;6.96;100.00;100264.75;4915761;29;20398;-74
2023/04/29 03:12:48;;;;;;;32.50;23.98;;;;;;;7.02;100.00;100258.00;4915867;29;20064;-74
2023/04/29 03:15:15;;;;;;;30.27;22.48;;;;;;;7.01;100.00;100261.63;4916946;29;20509;-74
2023/04/29 03:17:44;;;;;;;35.28;24.52;;;;;;;7.04;100.00;100256.00;4915807;29;20056;-73
2023/04/29 03:20:11;;;;;;;33.95;24.20;;;;;;;7.04;100.00;100251.50;4915839;29;20055;-73
2023/04/29 03:22:37;;;;;;;31.85;25.08;;;;;;;7.06;100.00;100260.22;4914594;29;20056;-73
2023/04/29 03:25:05;;;;;;;36.05;26.35;;;;;;;7.07;100.00;100256.56;4898119;29;20059;-73
2023/04/29 03:27:31;;;;;;;37.05;27.17;;;;;;;7.14;100.00;100254.97;4915823;29;20090;-73
2023/04/29 03:29:58;;;;;;;38.17;25.85;;;;;;;7.16;100.00;100250.34;4898171;29;20048;-73
2023/04/29 03:32:24;;;;;;;34.20;25.45;;;;;;;7.19;100.00;100243.88;4915448;29;20429;-72
2023/04/29 03:34:51;;;;;;;31.08;24.35;;;;;;;7.24;100.00;100244.25;4915610;29;20056;-74
2023/04/29 03:37:17;;;;;;;34.35;25.55;;;;;;;7.21;100.00;100246.38;4915102;29;20052;-74
2023/04/29 03:39:44;;;;;;;36.60;26.17;;;;;;;7.28;100.00;100242.13;4915245;29;20063;-76
2023/04/29 03:42:10;;;;;;;41.70;27.20;;;;;;;7.27;100.00;100251.94;4915530;29;20052;-76
2023/04/29 03:44:37;;;;;;;36.53;26.80;;;;;;;7.25;100.00;100248.59;4915022;29;20052;-75
2023/04/29 03:47:03;;;;;;;40.20;27.80;;;;;;;7.33;100.00;100243.34;4915599;29;20048;-75
2023/04/29 03:49:30;;;;;;;42.38;29.08;;;;;;;7.28;100.00;100250.13;4904929;29;20048;-76
2023/04/29 03:51:57;;;;;;;37.90;28.92;;;;;;;7.34;100.00;100246.84;4914659;29;20063;-75
2023/04/29 03:54:23;;;;;;;36.30;26.88;;;;;;;7.35;100.00;100243.19;4915080;29;20048;-75
2023/04/29 03:56:49;;;;;;;40.47;30.02;;;;;;;7.42;100.00;100244.25;4915631;29;20052;-76
2023/04/29 03:59:16;;;;;;;67.50;34.45;;;;;;;7.40;100.00;100244.44;4915288;29;20052;-76
2023/04/29 04:01:42;;;;;;;43.22;29.15;;;;;;;7.45;100.00;100243.97;4915213;29;20054;-75
2023/04/29 04:04:09;;;;;;;41.42;28.83;;;;;;;7.52;100.00;100244.19;4906804;29;20127;-75
2023/04/29 04:06:36;;;;;;;38.63;28.48;;;;;;;7.52;100.00;100249.53;4936143;29;20076;-70
2023/04/29 04:09:02;;;;;;;44.55;29.17;;;;;;;7.59;100.00;100255.94;4936379;29;20112;-71
2023/04/29 04:11:29;;;;;;;46.20;31.23;;;;;;;7.51;100.00;100248.69;4934902;29;20044;-69
2023/04/29 04:13:55;;;;;;;43.60;29.48;;;;;;;7.50;100.00;100257.72;4935323;29;20044;-70
2023/04/29 04:16:22;;;;;;;40.17;30.08;;;;;;;7.61;100.00;100260.16;4935792;29;20051;-71
2023/04/29 04:18:48;;;;;;;40.72;29.70;;;;;;;7.73;100.00;100257.25;4936829;29;20055;-71
2023/04/29 04:21:15;;;;;;;42.65;30.55;;;;;;;7.66;100.00;100257.84;4936982;29;20123;-70
2023/04/29 04:23:42;;;;;;;43.20;30.45;;;;;;;7.48;100.00;100261.50;4935601;29;20076;-71
2023/04/29 04:26:09;;;;;;;43.00;29.77;;;;;;;7.54;100.00;100253.75;4935654;29;20051;-69
2023/04/29 04:28:36;;;;;;;47.35;31.95;;;;;;;7.48;100.00;100262.34;4934822;29;20048;-72
2023/04/29 04:31:02;;;;;;;86.57;39.97;;;;;;;7.52;100.00;100258.38;4936060;29;20051;-71
2023/04/29 04:33:29;;;;;;;49.67;33.22;;;;;;;7.64;100.00;100259.84;4934995;29;20048;-71
2023/04/29 04:35:56;;;;;;;45.67;32.63;;;;;;;7.70;100.00;100257.53;4936108;29;20070;-71
2023/04/29 04:38:24;;;;;;;44.50;32.78;;;;;;;7.72;100.00;100264.41;4936014;29;20573;-71
2023/04/29 04:40:50;;;;;;;55.95;36.28;;;;;;;7.62;100.00;100259.16;4935485;29;20048;-69
2023/04/29 04:43:17;;;;;;;47.05;33.13;;;;;;;7.59;100.00;100259.44;4934546;29;20048;-69
2023/04/29 04:45:44;;;;;;;41.30;32.40;;;;;;;7.64;100.00;100264.34;4934122;29;20382;-71
2023/04/29 04:48:10;;;;;;;48.00;33.10;;;;;;;7.64;100.00;100256.34;4931877;29;20048;-72
2023/04/29 04:50:37;;;;;;;45.22;32.65;;;;;;;7.60;100.00;100261.16;4933288;29;20120;-70
2023/04/29 04:53:03;;;;;;;46.38;33.33;;;;;;;7.59;100.00;100258.59;4933980;29;20058;-69
2023/04/29 04:55:32;;;;;;;47.05;33.75;;;;;;;7.59;100.00;100261.28;4933077;29;20052;-69
2023/04/29 04:57:59;;;;;;;48.70;35.28;;;;;;;7.52;100.00;100258.38;4932742;29;20059;-69
2023/04/29 05:00:25;;;;;;;56.63;35.83;;;;;;;7.59;100.00;100255.94;4932687;29;20059;-69
2023/04/29 05:02:51;;;;;;;55.75;37.55;;;;;;;7.64;100.00;100254.50;4933397;29;20394;-70
2023/04/29 05:05:18;;;;;;;58.88;37.92;;;;;;;7.67;100.00;100264.00;4928161;29;20080;-69
2023/04/29 05:07:45;;;;;;;47.85;35.78;;;;;;;7.73;100.00;100262.56;4935638;29;20028;-70
2023/04/29 05:10:11;;;;;;;47.40;34.55;;;;;;;7.70;100.00;100254.88;4934820;29;20044;-70
2023/04/29 05:12:38;;;;;;;54.65;36.50;;;;;;;7.64;100.00;100257.16;4934719;29;20066;-70
2023/04/29 05:15:05;;;;;;;48.47;35.72;;;;;;;7.70;100.00;100257.53;4935241;29;20055;-69
2023/04/29 05:17:33;;;;;;;67.25;41.28;;;;;;;7.72;100.00;100260.91;4934338;29;20103;-70
2023/04/29 05:20:00;;;;;;;51.95;37.90;;;;;;;7.84;100.00;100265.03;4933640;29;20054;-70
2023/04/29 05:22:26;;;;;;;54.50;38.47;;;;;;;7.80;100.00;100261.81;4933184;29;20078;-70
2023/04/29 05:24:54;;;;;;;56.67;37.53;;;;;;;7.94;100.00;100260.44;4935103;29;20120;-70
2023/04/29 05:27:20;;;;;;;55.53;37.25;;;;;;;7.89;100.00;100270.78;4933611;29;20072;-70
2023/04/29 05:29:47;;;;;;;63.65;39.80;;;;;;;7.92;100.00;100270.47;4933749;29;20111;-70
2023/04/29 05:32:14;;;;;;;60.42;39.45;;;;;;;7.90;100.00;100269.78;4933503;29;20068;-71
2023/04/29 05:34:40;;;;;;;61.30;40.78;;;;;;;7.84;100.00;100265.88;4934457;29;20048;-71
2023/04/29 05:37:07;;;;;;;63.05;39.38;;;;;;;7.87;100.00;100275.41;4932425;29;20505;-69
2023/04/29 05:39:33;;;;;;;63.20;40.20;;;;;;;7.87;100.00;100267.41;4934473;29;20111;-70
2023/04/29 05:42:01;;;;;;;59.40;40.38;;;;;;;7.82;100.00;100267.84;4931696;29;20112;-70
2023/04/29 05:44:27;;;;;;;72.70;42.88;;;;;;;7.81;100.00;100265.31;4933673;29;20048;-70
2023/04/29 05:46:54;;;;;;;66.13;42.55;;;;;;;7.81;100.00;100265.31;4925238;29;20072;-69
2023/04/29 05:49:20;;;;;;;66.07;42.95;;;;;;;7.82;100.00;100270.50;4930019;29;20044;-70
2023/04/29 05:51:47;;;;;;;71.50;44.15;;;;;;;7.92;100.00;100273.13;4936324;29;20048;-70
2023/04/29 05:54:14;;;;;;;66.07;41.60;;;;;;;7.96;100.00;100273.66;4935790;29;20095;-71
2023/04/29 05:56:41;;;;;;;65.18;41.72;;;;;;;7.92;100.00;100278.47;4936811;29;20051;-71
2023/04/29 05:59:07;;;;;;;67.78;43.20;;;;;;;7.93;100.00;100272.13;4936120;29;20048;-70
2023/04/29 06:01:34;;;;;;;58.35;39.92;;;;;;;8.02;100.00;100279.25;4937303;29;20452;-69
2023/04/29 06:04:00;;;;;;;68.57;42.03;;;;;;;8.05;100.00;100280.75;4936820;29;20059;-71
2023/04/29 06:06:28;;;;;;;74.93;44.10;;;;;;;7.99;100.00;100281.38;4936158;29;20478;-70
2023/04/29 06:08:55;;;;;;;62.15;41.90;;;;;;;7.94;100.00;100281.81;4936428;29;20036;-69
2023/04/29 06:11:22;;;;;;;72.47;44.45;;;;;;;8.04;100.00;100282.56;4936385;29;20475;-69
2023/04/29 06:13:48;;;;;;;66.20;42.92;;;;;;;8.01;100.00;100280.22;4935063;29;20101;-69
2023/04/29 06:16:15;;;;;;;72.82;42.28;;;;;;;8.06;100.00;100283.28;4926917;29;20054;-72
2023/04/29 06:18:42;;;;;;;65.55;41.75;;;;;;;8.16;100.00;100290.34;4920751;29;20052;-70
2023/04/29 06:21:08;;;;;;;65.03;40.63;;;;;;;8.27;100.00;100290.13;4914538;29;20052;-71
2023/04/29 06:23:35;;;;;;;63.85;39.55;;;;;;;8.31;100.00;100294.97;4917901;29;20420;-71
2023/04/29 06:26:01;;;;;;;56.95;37.38;;;;;;;8.28;100.00;100291.78;4916889;29;20135;-72
2023/04/29 06:28:28;;;;;;;59.05;35.53;;;;;;;8.23;100.00;100297.59;4918914;29;20048;-72
2023/04/29 06:30:55;;;;;;;52.95;35.53;;;;;;;8.37;100.00;100302.38;4920243;29;20390;-71
2023/04/29 06:33:22;;;;;;;57.67;36.00;;;;;;;8.33;100.00;100309.03;4921352;29;20087;-72
2023/04/29 06:35:48;;;;;;;53.05;34.10;;;;;;;8.38;100.00;100305.91;4923627;29;20048;-72
2023/04/29 06:38:15;;;;;;;46.00;30.50;;;;;;;8.29;100.00;100314.84;4923287;29;20040;-71
2023/04/29 06:40:41;;;;;;;43.67;29.65;;;;;;;8.38;100.00;100308.56;4921815;29;20139;-71
2023/04/29 06:43:08;;;;;;;42.97;29.02;;;;;;;8.44;100.00;100325.81;4924222;29;20424;-71
2023/04/29 06:45:35;;;;;;;40.65;27.40;;;;;;;8.33;100.00;100321.53;4923898;29;20044;-71
2023/04/29 06:48:02;;;;;;;40.28;27.50;;;;;;;8.24;100.00;100327.84;4924956;29;20564;-71
2023/04/29 06:50:29;;;;;;;40.08;26.55;;;;;;;8.29;100.00;100337.06;4923794;29;20135;-71
2023/04/29 06:52:55;;;;;;;38.20;25.58;;;;;;;8.21;100.00;100331.66;4925019;29;20052;-71
2023/04/29 06:55:22;;;;;;;42.20;25.48;;;;;;;8.30;100.00;100335.25;4924989;29;20063;-72
2023/04/29 06:57:48;;;;;;;39.53;25.73;;;;;;;8.35;100.00;100338.28;4923205;29;20138;-71
2023/04/29 07:00:15;;;;;;;37.92;24.58;;;;;;;8.30;100.00;100335.25;4923866;29;20048;-72
2023/04/29 07:02:42;;;;;;;37.40;24.70;;;;;;;8.44;100.00;100337.34;4923476;29;20091;-72
2023/04/29 07:05:08;;;;;;;34.67;23.40;;;;;;;8.38;100.00;100343.31;4912171;29;20047;-73
2023/04/29 07:07:35;;;;;;;36.15;24.52;;;;;;;8.39;100.00;100344.97;4921978;29;20052;-73
2023/04/29 07:10:02;;;;;;;37.47;24.77;;;;;;;8.41;100.00;100345.69;4920694;29;20095;-73
2023/04/29 07:12:29;;;;;;;35.50;23.75;;;;;;;8.19;100.00;100343.47;4919545;29;20048;-72
2023/04/29 07:14:56;;;;;;;40.65;25.20;;;;;;;8.16;100.00;100349.13;4919543;29;20509;-73
2023/04/29 07:17:23;;;;;;;37.65;24.00;;;;;;;8.20;100.00;100363.88;4919625;29;20533;-71
2023/04/29 07:19:50;;;;;;;44.80;26.45;;;;;;;8.23;100.00;100368.91;4922513;29;20052;-71
2023/04/29 07:22:17;;;;;;;46.28;26.98;;;;;;;8.16;100.00;100370.50;4919793;29;20071;-72
2023/04/29 07:24:43;;;;;;;52.50;28.92;;;;;;;8.08;100.00;100366.75;4919469;29;20052;-71
2023/04/29 07:27:10;;;;;;;52.80;30.60;;;;;;;8.04;100.00;100368.06;4919258;29;20048;-72
2023/04/29 07:29:37;;;;;;;46.65;28.10;;;;;;;8.09;100.00;100376.47;4919406;29;20052;-71
2023/04/29 07:32:04;;;;;;;46.65;28.40;;;;;;;8.01;100.00;100373.72;4919231;29;20051;-73
2023/04/29 07:34:30;;;;;;;51.97;30.30;;;;;;;8.05;100.00;100384.94;4917877;29;20067;-72
2023/04/29 07:36:57;;;;;;;45.15;28.17;;;;;;;8.06;100.00;100392.81;4910773;29;20709;-72
2023/04/29 07:39:23;;;;;;;45.90;28.30;;;;;;;8.17;100.00;100391.75;4918090;29;20055;-73
2023/04/29 07:41:50;;;;;;;49.33;29.42;;;;;;;8.20;100.00;100391.44;4917060;29;20055;-71
2023/04/29 07:44:17;;;;;;;46.25;26.33;;;;;;;8.02;100.00;100404.78;4917171;29;20139;-74
2023/04/29 07:46:44;;;;;;;41.50;26.55;;;;;;;8.09;100.00;100402.38;4919104;29;20063;-71
2023/04/29 07:49:10;;;;;;;43.20;27.48;;;;;;;8.02;100.00;100404.78;4918310;29;20592;-72
2023/04/29 07:51:40;;;;;;;36.38;25.85;;;;;;;8.11;100.00;100409.22;4918496;29;20131;-71
2023/04/29 07:54:07;;;;;;;43.58;26.98;;;;;;;8.10;100.00;100420.91;4917537;29;20314;-72
2023/04/29 07:56:34;;;;;;;62.45;32.47;;;;;;;8.09;100.00;100427.25;4917334;29;20048;-71
2023/04/29 07:59:01;;;;;;;39.38;25.95;;;;;;;8.14;100.00;100432.97;4918619;29;20132;-73
2023/04/29 08:01:27;;;;;;;41.55;26.20;;;;;;;8.18;100.00;100432.66;4940900;29;20119;-71
2023/04/29 08:03:54;;;;;;;32.28;23.17;;;;;;;8.18;100.00;100432.66;4922982;29;20030;-72
2023/04/29 08:06:21;;;;;;;32.45;23.23;;;;;;;8.05;100.00;100433.03;4940411;29;20036;-71
2023/04/29 08:08:47;;;;;;;27.38;21.48;;;;;;;8.04;100.00;100447.38;4939592;29;20036;-73
2023/04/29 08:11:18;;;;;;;31.67;20.15;;;;;;;8.07;100.00;100453.25;4938827;29;20036;-73
2023/04/29 08:13:45;;;;;;;31.55;20.92;;;;;;;8.05;100.00;100460.59;4939582;29;20048;-73
2023/04/29 08:16:12;;;;;;;28.65;20.40;;;;;;;7.96;100.00;100466.00;4916012;29;20056;-78
2023/04/29 08:18:39;;;;;;;28.42;20.17;;;;;;;7.84;100.00;100468.84;4915786;29;20108;-75
2023/04/29 08:21:06;;;;;;;23.95;18.45;;;;;;;7.81;100.00;100474.47;4914715;29;20040;-77
2023/04/29 08:23:33;;;;;;;28.85;18.23;;;;;;;7.86;100.00;100479.41;4905519;29;20421;-77
2023/04/29 08:26:00;;;;;;;24.77;18.27;;;;;;;7.91;100.00;100487.78;4915884;29;20052;-75
2023/04/29 08:28:26;;;;;;;25.25;19.90;;;;;;;7.83;100.00;100485.00;4912821;29;20048;-76
2023/04/29 08:30:54;;;;;;;27.50;18.73;;;;;;;7.85;100.00;100491.91;4915373;29;20048;-77
2023/04/29 08:33:21;;;;;;;26.48;19.23;;;;;;;7.82;100.00;100502.84;4915944;29;20076;-76
2023/04/29 08:35:47;;;;;;;23.75;18.05;;;;;;;7.85;100.00;100507.09;4913673;29;20060;-75
2023/04/29 08:38:14;;;;;;;24.77;18.42;;;;;;;7.87;100.00;100505.94;4914420;29;20048;-77
2023/04/29 08:40:44;;;;;;;26.45;19.27;;;;;;;7.88;100.00;100517.47;4914816;29;20059;-75
2023/04/29 08:43:14;;;;;;;22.67;17.73;;;;;;;7.80;100.00;100509.31;4915118;29;20079;-77
2023/04/29 08:45:42;;;;;;;28.10;18.95;;;;;;;7.85;100.00;100517.78;4914591;29;20135;-77
2023/04/29 08:48:09;;;;;;;24.48;18.83;;;;;;;7.79;100.00;100529.03;4914863;29;20075;-76
2023/04/29 08:50:40;;;;;;;23.27;17.90;;;;;;;7.91;100.00;100530.53;4914658;29;20131;-76
2023/04/29 08:53:11;;;;;;;21.38;16.33;;;;;;;7.89;100.00;100536.03;4912445;29;20044;-75
2023/04/29 08:55:43;;;;;;;26.83;17.92;;;;;;;7.90;100.00;100535.03;4913824;29;20052;-76
2023/04/29 08:58:11;;;;;;;26.42;17.42;;;;;;;7.97;100.00;100547.81;4913796;29;20416;-76
2023/04/29 09:00:42;;;;;;;23.08;17.73;;;;;;;8.01;100.00;100552.69;4913656;29;20059;-77
2023/04/29 09:03:41;;;;;;;22.70;17.23;;;;;;;8.02;100.00;100554.41;4915047;29;20457;-75
2023/04/29 09:06:09;;;;;;;28.48;17.90;;;;;;;7.95;100.00;100566.66;4905145;29;20135;-76
2023/04/29 09:08:36;;;;;;;24.33;17.45;;;;;;;7.96;100.00;100567.50;4914985;29;20127;-75
2023/04/29 09:11:04;;;;;;;25.67;17.33;;;;;;;8.01;100.00;100568.72;4914518;29;20048;-76
2023/04/29 09:13:31;;;;;;;25.67;18.23;;;;;;;8.00;100.00;100569.72;4896392;29;20151;-74
2023/04/29 09:15:58;;;;;;;26.05;18.23;;;;;;;8.04;100.00;100581.78;4915523;29;20040;-77
2023/04/29 09:19:00;;;;;;;31.75;18.55;;;;;;;7.98;100.00;100569.00;4913933;29;20485;-77
2023/04/29 09:21:27;;;;;;;;;;;;;;;7.82;100.00;100574.13;4819038;29;20050;-77
2023/04/29 09:23:55;;;;;;;31.77;20.40;;;;;;;7.81;100.00;100575.09;4818220;29;19983;-77
2023/04/29 09:26:23;;;;;;;32.05;20.42;;;;;;;7.92;100.00;100592.84;4818090;29;20054;-77
2023/04/29 09:29:08;;;;;;;34.65;22.63;;;;;;;7.80;100.00;100594.78;4818052;29;20061;-77
2023/04/29 09:31:38;;;;;;;33.15;22.15;;;;;;;7.79;100.00;100598.44;4817665;29;20054;-75
2023/04/29 09:34:05;;;;;;;37.22;24.63;;;;;;;7.71;100.00;100599.19;4818079;29;20054;-75
2023/04/29 09:36:48;;;;;;;36.33;24.13;;;;;;;7.76;100.00;100601.41;4818668;29;20058;-77
2023/04/29 09:39:22;;;;;;;37.63;24.70;;;;;;;7.77;100.00;100611.94;4817182;29;20042;-78
2023/04/29 09:41:51;;;;;;;43.58;28.20;;;;;;;7.72;100.00;100616.03;4818414;29;20415;-76
2023/04/29 09:44:18;;;;;;;36.72;26.27;;;;;;;7.65;100.00;100616.63;4818958;29;20419;-78
2023/04/29 09:46:56;;;;;;;49.97;30.73;;;;;;;7.65;100.00;100621.94;4810086;29;20058;-77
2023/04/29 09:49:27;;;;;;;46.05;30.40;;;;;;;7.57;100.00;100627.19;4830697;29;20046;-77
2023/04/29 09:51:58;;;;;;;47.90;32.50;;;;;;;7.72;100.00;100635.56;4817809;29;20081;-76
2023/04/29 09:54:27;;;;;;;49.85;32.95;;;;;;;7.65;100.00;100635.31;4824327;29;20411;-77
2023/04/29 09:56:55;;;;;;;47.55;30.95;;;;;;;7.68;100.00;100638.69;4914142;29;20056;-77
2023/04/29 09:59:22;;;;;;;55.50;35.78;;;;;;;7.59;100.00;100651.88;4912366;29;20056;-77
2023/04/29 10:01:51;;;;;;;48.22;34.78;;;;;;;7.72;100.00;100648.09;4912794;29;20082;-76
2023/04/29 10:04:19;;;;;;;51.33;33.25;;;;;;;7.73;100.00;100655.09;4912778;29;20063;-77
2023/04/29 10:06:49;;;;;;;57.42;34.53;;;;;;;7.79;100.00;100658.03;4914450;29;20417;-77
2023/04/29 10:09:17;;;;;;;60.40;37.00;;;;;;;7.76;100.00;100661.00;4917500;29;20076;-77
2023/04/29 10:11:46;;;;;;;64.88;38.13;;;;;;;7.76;100.00;100662.84;4922736;29;20100;-71
2023/04/29 10:14:15;;;;;;;63.28;37.67;;;;;;;7.66;100.00;100669.03;4924970;29;20076;-73
2023/04/29 10:17:24;;;;;;;61.85;38.92;;;;;;;7.80;100.00;100677.56;4938158;29;20036;-72
2023/04/29 10:20:00;;;;;;;66.72;39.72;;;;;;;7.73;100.00;100682.66;4924123;29;20056;-72
2023/04/29 10:22:48;;;;;;;68.40;42.63;;;;;;;7.73;100.00;100677.31;4939459;29;20035;-72
2023/04/29 10:25:17;;;;;;;68.28;42.33;;;;;;;7.77;100.00;100681.38;4940934;29;20055;-71
2023/04/29 10:27:45;;;;;;;70.80;44.47;;;;;;;7.84;100.00;100679.00;4939592;29;20032;-74
2023/04/29 10:30:16;;;;;;;77.82;45.80;;;;;;;7.84;100.00;100682.50;4924783;29;20056;-71
2023/04/29 10:32:44;;;;;;;83.00;47.75;;;;;;;7.97;100.00;100687.56;4921185;29;20035;-73
2023/04/29 10:35:21;;;;;;;76.70;44.85;;;;;;;7.85;100.00;100694.91;4921572;29;20037;-72
2023/04/29 10:37:48;;;;;;;76.18;44.40;;;;;;;7.85;100.00;100704.75;4921953;29;20112;-72
2023/04/29 10:40:21;;;;;;;84.55;47.10;;;;;;;7.95;100.00;100702.91;4921474;29;20037;-72
2023/04/29 10:42:50;;;;;;;75.38;43.78;;;;;;;8.05;100.00;100702.84;4900404;29;20104;-72
2023/04/29 10:45:31;;;;;;;73.32;43.67;;;;;;;8.14;100.00;100712.69;4889486;29;20057;-72
2023/04/29 10:48:01;;;;;;;74.03;43.55;;;;;;;8.17;100.00;100719.59;4895307;29;20088;-72
2023/04/29 10:50:28;;;;;;;69.13;42.55;;;;;;;8.11;100.00;100715.66;4897755;29;20060;-73
2023/04/29 10:52:56;;;;;;;68.07;42.22;;;;;;;8.04;100.00;100720.72;4895754;29;20059;-73
2023/04/29 10:55:24;;;;;;;67.70;39.05;;;;;;;7.95;100.00;100720.72;4896834;29;20079;-73
2023/04/29 10:57:57;;;;;;;60.50;37.95;;;;;;;7.90;100.00;100723.84;4895629;29;20052;-72
2023/04/29 11:00:29;;;;;;;57.72;35.92;;;;;;;7.95;100.00;100726.06;4896414;29;20083;-71
2023/04/29 11:02:58;;;;;;;56.15;37.58;;;;;;;8.10;100.00;100730.84;4909605;29;20420;-72
2023/04/29 11:05:35;;;;;;;55.47;35.15;;;;;;;8.21;100.00;100734.34;4914845;29;20059;-72
2023/04/29 11:08:12;;;;;;;56.13;35.03;;;;;;;8.09;100.00;100741.69;4915590;29;20048;-73
2023/04/29 11:10:42;;;;;;;48.60;33.30;;;;;;;8.08;100.00;100737.31;4915149;29;20060;-72
2023/04/29 11:13:21;;;;;;;47.65;31.80;;;;;;;8.25;100.00;100738.41;4906184;29;20426;-72
2023/04/29 11:15:49;;;;;;;49.88;32.83;;;;;;;8.14;100.00;100745.59;4914942;29;20055;-72
2023/04/29 11:18:16;;;;;;;46.33;32.83;;;;;;;8.26;100.00;100748.09;4914475;29;20487;-73